Time;durP1;ratioP1;P1;durP2;ratioP2;P2;SDS_P1;SDS_P2;PMS_P1;PMS_P2;Temp;Humidity;BMP_temperature;BMP_pressure;BME280_temperature;BME280_humidity;BME280_pressure;Samples;Min_cycle;Max_cycle;Signal;HPM_P1;HPM_P2
2023/01/18 00:00:39;;;;;;;34.90;13.32;;;;;;;-3.32;100.00;98971.75;5072912;28;20076;-59
2023/01/18 00:03:11;;;;;;;27.67;12.75;;;;;;;-3.36;100.00;98971.94;5069628;28;20058;-59
2023/01/18 00:05:42;;;;;;;29.10;11.85;;;;;;;-3.34;100.00;98976.13;5073020;28;20373;-59
2023/01/18 00:08:12;;;;;;;23.92;10.65;;;;;;;-3.39;100.00;98975.44;5071288;28;20051;-59
2023/01/18 00:10:40;;;;;;;19.35;9.88;;;;;;;-3.38;100.00;98971.97;5071726;28;20060;-59
2023/01/18 00:13:09;;;;;;;20.00;9.35;;;;;;;-3.43;100.00;98974.72;5074124;28;20098;-59
2023/01/18 00:15:38;;;;;;;18.02;9.63;;;;;;;-3.43;100.00;98979.03;5073959;28;20391;-59
2023/01/18 00:18:06;;;;;;;18.60;9.63;;;;;;;-3.41;100.00;98972.06;5073848;28;20056;-59
2023/01/18 00:20:34;;;;;;;18.20;10.15;;;;;;;-3.47;100.00;98977.47;5074287;28;20052;-59
2023/01/18 00:23:03;;;;;;;20.50;10.48;;;;;;;-3.52;100.00;98969.91;5072753;28;20068;-59
2023/01/18 00:25:31;;;;;;;18.02;9.43;;;;;;;-3.53;100.00;98975.09;5070540;28;20052;-59
2023/01/18 00:28:00;;;;;;;23.40;10.90;;;;;;;-3.54;100.00;98971.72;5072094;28;20041;-59
2023/01/18 00:30:28;;;;;;;22.52;11.00;;;;;;;-3.59;100.00;98977.00;5074135;28;20449;-59
2023/01/18 00:32:58;;;;;;;23.20;11.07;;;;;;;-3.62;100.00;98979.69;5069061;28;20148;-59
2023/01/18 00:35:27;;;;;;;21.45;10.63;;;;;;;-3.64;100.00;98978.06;5070313;28;20044;-59
2023/01/18 00:37:55;;;;;;;25.30;11.55;;;;;;;-3.66;100.00;98975.56;5073948;28;20041;-59
2023/01/18 00:40:27;;;;;;;22.05;11.45;;;;;;;-3.67;100.00;98984.16;5074181;28;20075;-59
2023/01/18 00:45:42;;;;;;;22.48;10.93;;;;;;;-3.64;100.00;98980.63;5069862;28;20044;-59
2023/01/18 00:48:12;;;;;;;22.20;11.90;;;;;;;-3.66;100.00;98985.00;5070012;28;20119;-59
2023/01/18 00:50:40;;;;;;;18.85;10.48;;;;;;;-3.70;100.00;98986.84;5072497;28;20091;-59
2023/01/18 00:53:08;;;;;;;21.05;11.02;;;;;;;-3.68;100.00;98977.38;5072067;28;20410;-59
2023/01/18 00:55:38;;;;;;;21.08;10.27;;;;;;;-3.68;100.00;98973.94;5073929;28;20402;-59
2023/01/18 00:58:06;;;;;;;21.02;10.50;;;;;;;-3.72;100.00;98974.94;5072221;28;20071;-59
2023/01/18 01:00:35;;;;;;;19.42;10.57;;;;;;;-3.75;100.00;98984.47;5072492;28;20048;-59
2023/01/18 01:03:03;;;;;;;19.40;10.77;;;;;;;-3.65;100.00;98981.56;5068530;28;20052;-59
2023/01/18 01:08:17;;;;;;;21.27;11.00;;;;;;;-3.74;100.00;98990.41;5070378;28;20114;-59
2023/01/18 01:10:48;;;;;;;20.58;11.57;;;;;;;-3.72;100.00;98985.22;5069686;28;20048;-59
2023/01/18 01:27:10;;;;;;;20.67;11.18;;;;;;;-3.86;100.00;98988.28;5069576;28;20056;-49
2023/01/18 01:29:38;;;;;;;19.27;10.63;;;;;;;-3.83;100.00;98994.16;5069433;28;20499;-52
2023/01/18 01:32:07;;;;;;;19.55;10.70;;;;;;;-3.82;100.00;98992.44;5072575;28;20040;-50
2023/01/18 01:34:35;;;;;;;21.73;11.30;;;;;;;-3.85;100.00;98995.13;5072688;28;20040;-52
2023/01/18 01:37:04;;;;;;;19.63;11.02;;;;;;;-3.81;100.00;98996.69;5070767;28;20036;-52
2023/01/18 01:39:32;;;;;;;20.48;10.85;;;;;;;-3.85;100.00;98995.94;5068839;28;20083;-48
2023/01/18 01:42:00;;;;;;;19.92;10.68;;;;;;;-3.85;100.00;98992.53;5071935;28;20109;-47
2023/01/18 01:44:50;;;;;;;18.40;11.27;;;;;;;-3.89;100.00;98991.81;5072647;28;20102;-48
2023/01/18 01:47:39;;;;;;;19.73;10.43;;;;;;;-3.89;100.00;98998.69;5072589;28;20119;-48
2023/01/18 01:50:15;;;;;;;19.40;10.57;;;;;;;-3.89;100.00;98996.94;5072327;28;20056;-52
2023/01/18 01:52:46;;;;;;;16.90;10.02;;;;;;;-3.89;100.00;99002.09;5068294;28;20040;-49
2023/01/18 01:55:22;;;;;;;17.92;10.07;;;;;;;-3.88;100.00;99010.66;5070582;28;20046;-50
2023/01/18 01:57:56;;;;;;;18.17;9.70;;;;;;;-3.88;100.00;99013.22;5072276;28;20052;-50
2023/01/18 02:00:26;;;;;;;16.60;10.38;;;;;;;-3.80;100.00;99016.34;5072294;28;20543;-49
2023/01/18 02:02:57;;;;;;;19.35;10.02;;;;;;;-3.86;100.00;99017.38;5071820;28;20044;-49
2023/01/18 02:05:28;;;;;;;17.48;10.40;;;;;;;-3.89;100.00;99012.34;5072395;28;20056;-49
2023/01/18 02:07:59;;;;;;;18.67;9.77;;;;;;;-3.87;100.00;99015.72;5072146;28;20062;-51
2023/01/18 02:10:27;;;;;;;17.85;9.60;;;;;;;-3.90;100.00;99015.81;5072257;28;20056;-50
2023/01/18 02:12:58;;;;;;;18.30;9.60;;;;;;;-3.89;100.00;99022.63;5072113;28;20044;-51
2023/01/18 02:15:40;;;;;;;16.40;9.73;;;;;;;-3.81;100.00;99015.50;5070540;28;20055;-48
2023/01/18 02:18:21;;;;;;;18.60;9.52;;;;;;;-3.84;100.00;99013.03;5070202;28;20392;-48
2023/01/18 02:21:11;;;;;;;17.77;10.05;;;;;;;-3.89;100.00;99014.94;5068006;28;20177;-49
2023/01/18 02:24:27;;;;;;;17.05;10.38;;;;;;;-3.89;100.00;99014.09;5071714;28;20063;-48
2023/01/18 02:27:04;;;;;;;21.15;10.13;;;;;;;-3.81;100.00;99022.38;5067987;28;20052;-49
2023/01/18 02:29:46;;;;;;;16.52;9.35;;;;;;;-3.83;100.00;99021.56;5071660;28;20526;-47
2023/01/18 02:32:22;;;;;;;19.65;11.45;;;;;;;-3.90;100.00;99023.50;5071420;28;20420;-47
2023/01/18 02:34:59;;;;;;;19.88;11.18;;;;;;;-3.83;100.00;99027.56;5067920;28;20043;-50
2023/01/18 02:37:39;;;;;;;18.55;11.13;;;;;;;-3.92;100.00;99033.84;5068727;28;20055;-48
2023/01/18 02:40:15;;;;;;;19.20;12.45;;;;;;;-3.94;100.00;99032.22;5071758;28;20052;-49
2023/01/18 02:48:24;;;;;;;19.50;10.73;;;;;;;-3.96;100.00;99036.59;5071489;28;20063;-49
2023/01/18 02:50:52;;;;;;;16.67;10.70;;;;;;;-3.99;100.00;99041.84;5070681;28;20537;-48
2023/01/18 02:53:20;;;;;;;17.25;9.73;;;;;;;-4.01;100.00;99041.03;5068255;28;20044;-51
2023/01/18 02:55:53;;;;;;;18.85;10.15;;;;;;;-3.99;100.00;99041.84;5069016;28;20090;-50
2023/01/18 02:58:25;;;;;;;19.55;10.88;;;;;;;-3.99;100.00;99039.28;5071625;28;20416;-52
2023/01/18 03:01:00;;;;;;;16.95;10.10;;;;;;;-3.99;100.00;99042.66;5071815;28;20547;-48
2023/01/18 03:03:28;;;;;;;17.88;9.63;;;;;;;-3.98;100.00;99043.50;5071725;28;20040;-47
2023/01/18 03:06:00;;;;;;;16.55;9.88;;;;;;;-3.99;100.00;99047.81;5071855;28;20353;-48
2023/01/18 03:08:35;;;;;;;18.58;10.35;;;;;;;-3.96;100.00;99041.72;5072229;28;20052;-47
2023/01/18 03:11:07;;;;;;;17.10;9.20;;;;;;;-3.98;100.00;99043.50;5071838;28;20068;-48
2023/01/18 03:13:56;;;;;;;18.73;9.80;;;;;;;-3.97;100.00;99045.19;5068363;28;20479;-49
2023/01/18 03:16:29;;;;;;;17.85;10.02;;;;;;;-4.00;100.00;99048.69;5070515;28;20101;-48
2023/01/18 03:19:03;;;;;;;16.75;9.57;;;;;;;-4.00;100.00;99050.44;5075178;28;20084;-48
2023/01/18 03:21:41;;;;;;;16.30;9.35;;;;;;;-3.96;100.00;99050.25;5075454;28;20454;-49
2023/01/18 03:24:10;;;;;;;16.30;9.57;;;;;;;-4.01;100.00;99049.56;5075200;28;20063;-48
2023/01/18 03:26:42;;;;;;;16.08;8.75;;;;;;;-4.02;100.00;99049.63;5074600;28;20569;-48
2023/01/18 03:34:54;;;;;;;15.60;8.90;;;;;;;-4.08;100.00;99051.53;5074948;28;20105;-47
2023/01/18 03:37:27;;;;;;;16.40;8.90;;;;;;;-4.10;100.00;99050.72;5075100;28;20041;-48
2023/01/18 03:40:00;;;;;;;17.20;9.32;;;;;;;-4.11;100.00;99054.19;5075030;28;20055;-48
2023/01/18 03:42:36;;;;;;;15.80;8.70;;;;;;;-4.07;100.00;99062.63;5075058;28;20507;-48
2023/01/18 03:45:10;;;;;;;13.55;8.57;;;;;;;-4.08;100.00;99053.25;5075019;28;20095;-50
2023/01/18 03:47:40;;;;;;;17.65;8.75;;;;;;;-4.12;100.00;99060.22;5074943;28;20059;-51
2023/01/18 03:50:09;;;;;;;16.63;8.85;;;;;;;-4.14;100.00;99063.75;5073462;28;20135;-48
2023/01/18 03:52:41;;;;;;;16.70;9.30;;;;;;;-4.17;100.00;99068.94;5074660;28;20041;-59
2023/01/18 03:55:11;;;;;;;;;;;;;;;-4.19;100.00;99069.00;5074659;28;20056;-59
2023/01/18 03:57:45;;;;;;;14.57;8.60;;;;;;;-4.18;100.00;99069.88;5074909;28;19920;-59
2023/01/18 04:00:15;;;;;;;16.70;8.70;;;;;;;-4.18;100.00;99075.81;5074404;28;20127;-59
2023/01/18 04:02:45;;;;;;;15.35;9.23;;;;;;;-4.20;100.00;99075.03;5074129;28;20075;-59
2023/01/18 04:05:14;;;;;;;16.60;9.43;;;;;;;-4.23;100.00;99074.31;5074261;28;20041;-59
2023/01/18 04:07:43;;;;;;;16.38;9.02;;;;;;;-4.25;100.00;99076.91;5072576;28;20565;-59
2023/01/18 04:10:11;;;;;;;16.15;9.52;;;;;;;-4.25;100.00;99077.75;5071014;28;20062;-59
2023/01/18 04:12:40;;;;;;;18.35;9.38;;;;;;;-4.15;100.00;99083.41;5072014;28;20059;-59
2023/01/18 04:15:09;;;;;;;18.05;9.45;;;;;;;-4.16;100.00;99092.03;5074256;28;20216;-58
2023/01/18 04:17:38;;;;;;;18.90;9.38;;;;;;;-4.20;100.00;99092.16;5072853;28;20109;-59
2023/01/18 04:20:09;;;;;;;15.05;8.50;;;;;;;-4.13;100.00;99088.50;5070797;28;20047;-59
2023/01/18 04:22:37;;;;;;;17.08;8.82;;;;;;;-4.16;100.00;99092.03;5071659;28;20052;-59
2023/01/18 04:25:09;;;;;;;17.85;8.98;;;;;;;-4.16;100.00;99091.19;5074465;28;20123;-59
2023/01/18 04:27:37;;;;;;;15.13;8.27;;;;;;;-4.21;100.00;99093.91;5071040;28;20056;-59
2023/01/18 04:30:06;;;;;;;17.05;8.60;;;;;;;-4.26;100.00;99083.75;5070348;28;20097;-59
2023/01/18 04:32:34;;;;;;;15.60;8.68;;;;;;;-4.22;100.00;99083.69;5072195;28;20407;-59
2023/01/18 04:35:02;;;;;;;15.02;8.93;;;;;;;-4.27;100.00;99082.13;5072528;28;20056;-59
2023/01/18 04:37:32;;;;;;;15.27;8.48;;;;;;;-4.28;100.00;99093.25;5074244;28;20067;-59
2023/01/18 04:40:01;;;;;;;15.75;9.18;;;;;;;-4.31;100.00;99095.06;5071103;28;20060;-59
2023/01/18 04:42:29;;;;;;;14.98;9.27;;;;;;;-4.28;100.00;99100.09;5070469;28;20075;-59
2023/01/18 04:44:58;;;;;;;15.95;8.55;;;;;;;-4.25;100.00;99100.03;5073165;28;20045;-59
2023/01/18 04:47:30;;;;;;;18.23;9.20;;;;;;;-4.30;100.00;99102.72;5069348;28;20127;-59
2023/01/18 04:49:58;;;;;;;;;;;;;;;-4.33;100.00;99105.41;5071505;28;20040;-59
2023/01/18 04:52:30;;;;;;;14.60;8.65;;;;;;;-4.35;100.00;99103.75;5073797;28;19959;-59
2023/01/18 04:55:00;;;;;;;;;;;;;;;-4.39;100.00;99108.19;5074105;28;20144;-60
2023/01/18 04:57:28;;;;;;;16.70;8.98;;;;;;;-4.26;100.00;99109.44;5073519;28;20382;-59
2023/01/18 04:59:56;;;;;;;14.80;8.77;;;;;;;-4.32;100.00;99108.78;5073522;28;20053;-59
2023/01/18 05:02:24;;;;;;;18.30;9.20;;;;;;;-4.32;100.00;99101.09;5072381;28;20139;-48
2023/01/18 05:04:52;;;;;;;16.98;8.95;;;;;;;-4.34;100.00;99103.72;5072850;28;20048;-47
2023/01/18 05:07:24;;;;;;;14.23;8.95;;;;;;;-4.36;100.00;99109.78;5071163;28;20428;-52
2023/01/18 05:09:52;;;;;;;15.80;9.35;;;;;;;-4.40;100.00;99111.63;5069942;28;20993;-51
2023/01/18 05:12:22;;;;;;;18.55;9.80;;;;;;;-4.40;100.00;99119.31;5072720;28;20048;-50
2023/01/18 05:14:50;;;;;;;21.77;9.75;;;;;;;-4.42;100.00;99121.94;5073168;28;20113;-47
2023/01/18 05:17:18;;;;;;;17.80;9.60;;;;;;;-4.41;100.00;99118.47;5073158;28;20062;-50
2023/01/18 05:19:48;;;;;;;17.10;9.27;;;;;;;-4.38;100.00;99119.28;5073272;28;20426;-49
2023/01/18 05:22:16;;;;;;;19.48;9.55;;;;;;;-4.41;100.00;99120.19;5073058;28;20105;-51
2023/01/18 05:24:44;;;;;;;16.17;10.02;;;;;;;-4.42;100.00;99121.94;5073060;28;20048;-48
2023/01/18 05:27:12;;;;;;;16.23;9.57;;;;;;;-4.41;100.00;99127.91;5073020;28;20410;-50
2023/01/18 05:29:42;;;;;;;19.80;10.20;;;;;;;-4.42;100.00;99126.22;5073244;28;20598;-50
2023/01/18 05:32:11;;;;;;;19.40;9.52;;;;;;;-4.43;100.00;99127.09;5072992;28;20083;-49
2023/01/18 05:34:39;;;;;;;18.48;9.63;;;;;;;-4.42;100.00;99124.50;5073137;28;20053;-48
2023/01/18 05:37:07;;;;;;;13.32;8.63;;;;;;;-4.42;100.00;99124.50;5072731;28;20040;-48
2023/01/18 05:39:35;;;;;;;16.42;9.15;;;;;;;-4.39;100.00;99128.72;5072072;28;20537;-50
2023/01/18 05:42:04;;;;;;;16.95;9.30;;;;;;;-4.40;100.00;99129.59;5072759;28;20491;-47
2023/01/18 05:44:32;;;;;;;15.90;9.95;;;;;;;-4.41;100.00;99131.28;5072803;28;20045;-48
2023/01/18 05:47:02;;;;;;;16.33;9.30;;;;;;;-4.36;100.00;99133.75;5069524;28;20376;-48
2023/01/18 05:49:30;;;;;;;17.55;9.38;;;;;;;-4.35;100.00;99145.69;5068058;28;20055;-48
2023/01/18 05:51:58;;;;;;;17.67;9.23;;;;;;;-4.41;100.00;99143.31;5071867;28;20071;-50
2023/01/18 05:54:26;;;;;;;18.90;9.80;;;;;;;-4.45;100.00;99152.81;5072515;28;20052;-50
2023/01/18 05:56:57;;;;;;;18.85;10.43;;;;;;;-4.47;100.00;99159.75;5072320;28;20075;-50
2023/01/18 05:59:25;;;;;;;19.23;9.90;;;;;;;-4.47;100.00;99159.75;5072298;28;20052;-47
2023/01/18 06:01:53;;;;;;;16.10;10.00;;;;;;;-4.47;100.00;99164.00;5072484;28;20041;-49
2023/01/18 06:04:23;;;;;;;17.33;9.80;;;;;;;-4.47;100.00;99171.72;5072362;28;20052;-47
2023/01/18 06:06:51;;;;;;;15.77;9.25;;;;;;;-4.46;100.00;99165.69;5072315;28;20086;-47
2023/01/18 06:09:19;;;;;;;16.92;10.10;;;;;;;-4.48;100.00;99168.31;5072269;28;20055;-49
2023/01/18 06:11:47;;;;;;;16.17;8.75;;;;;;;-4.44;100.00;99175.03;5071820;28;20052;-59
2023/01/18 06:14:15;;;;;;;17.38;9.02;;;;;;;-4.48;100.00;99173.44;5071911;28;20049;-59
2023/01/18 06:16:43;;;;;;;16.15;8.52;;;;;;;-4.51;100.00;99178.69;5072274;28;20048;-59
2023/01/18 06:19:12;;;;;;;14.88;8.80;;;;;;;-4.53;100.00;99180.44;5068052;28;20048;-60
2023/01/18 06:21:41;;;;;;;17.80;8.90;;;;;;;-4.56;100.00;99183.09;5069183;28;20509;-59
2023/01/18 06:24:10;;;;;;;17.85;9.20;;;;;;;-4.57;100.00;99188.28;5070691;28;20040;-60
2023/01/18 06:26:38;;;;;;;16.70;8.65;;;;;;;-4.57;100.00;99189.13;5068292;28;20098;-59
2023/01/18 06:29:06;;;;;;;15.13;9.43;;;;;;;-4.60;100.00;99191.78;5071287;28;20102;-59
2023/01/18 06:31:34;;;;;;;15.05;9.00;;;;;;;-4.56;100.00;99195.09;5072117;28;20140;-59
2023/01/18 06:34:08;;;;;;;19.77;9.27;;;;;;;-4.57;100.00;99198.53;5072087;28;20612;-59
2023/01/18 06:36:36;;;;;;;14.98;8.80;;;;;;;-4.59;100.00;99198.59;5072166;28;20052;-59
2023/01/18 06:39:06;;;;;;;17.67;9.25;;;;;;;-4.61;100.00;99203.78;5070237;28;20051;-59
2023/01/18 06:41:34;;;;;;;14.02;8.10;;;;;;;-4.58;100.00;99205.41;5068414;28;20392;-59
2023/01/18 06:44:02;;;;;;;16.48;8.85;;;;;;;-4.65;100.00;99214.16;5071496;28;20497;-59
2023/01/18 06:46:30;;;;;;;14.70;9.05;;;;;;;-4.64;100.00;99220.97;5071760;28;20511;-59
2023/01/18 06:48:58;;;;;;;13.80;8.45;;;;;;;-4.69;100.00;99215.13;5071882;28;20127;-59
2023/01/18 06:51:26;;;;;;;16.58;8.93;;;;;;;-4.69;100.00;99217.69;5075774;28;20080;-59
2023/01/18 06:53:54;;;;;;;16.23;9.60;;;;;;;-4.68;100.00;99219.38;5075997;28;20439;-59
2023/01/18 06:56:25;;;;;;;20.10;10.57;;;;;;;-4.69;100.00;99225.38;5072927;28;21916;-59
2023/01/18 06:58:54;;;;;;;17.45;9.85;;;;;;;-4.71;100.00;99228.00;5071973;28;20044;-59
2023/01/18 07:01:23;;;;;;;15.95;10.10;;;;;;;-4.73;100.00;99226.38;5075908;28;20056;-59
2023/01/18 07:03:51;;;;;;;14.90;8.77;;;;;;;-4.75;100.00;99240.06;5074137;28;20041;-59
2023/01/18 07:06:20;;;;;;;16.25;9.85;;;;;;;-4.63;100.00;99236.31;5072428;28;20131;-59
2023/01/18 07:08:49;;;;;;;15.25;9.00;;;;;;;-4.67;100.00;99250.13;5074413;28;20403;-59
2023/01/18 07:11:18;;;;;;;16.42;8.73;;;;;;;-4.70;100.00;99254.50;5075481;28;20078;-59
2023/01/18 07:13:48;;;;;;;17.33;9.60;;;;;;;-4.70;100.00;99252.78;5074389;28;20049;-59
2023/01/18 07:16:17;;;;;;;15.50;9.05;;;;;;;-4.75;100.00;99257.19;5071149;28;20052;-59
2023/01/18 07:18:47;;;;;;;14.82;8.65;;;;;;;-4.73;100.00;99258.00;5072766;28;20415;-47
2023/01/18 07:21:18;;;;;;;19.55;9.40;;;;;;;-4.76;100.00;99263.19;5074794;28;20045;-49
2023/01/18 07:23:46;;;;;;;18.48;10.18;;;;;;;-4.78;100.00;99262.41;5075003;28;20488;-50
2023/01/18 07:26:16;;;;;;;17.88;10.05;;;;;;;-4.78;100.00;99280.38;5074123;28;20401;-49
2023/01/18 07:28:48;;;;;;;16.77;9.50;;;;;;;-4.78;100.00;99272.69;5071236;28;20045;-48
2023/01/18 07:31:18;;;;;;;18.75;9.57;;;;;;;-4.80;100.00;99267.59;5073152;28;20076;-49
2023/01/18 07:33:46;;;;;;;18.05;10.50;;;;;;;-4.78;100.00;99277.81;5075296;28;20490;-50
2023/01/18 07:36:14;;;;;;;21.50;9.70;;;;;;;-4.81;100.00;99276.16;5074894;28;20040;-50
2023/01/18 07:38:42;;;;;;;18.85;9.85;;;;;;;-4.83;100.00;99269.38;5074944;28;20079;-50
2023/01/18 07:41:14;;;;;;;20.92;10.70;;;;;;;-4.81;100.00;99280.47;5075006;28;20102;-46
2023/01/18 07:43:43;;;;;;;20.08;9.68;;;;;;;-4.84;100.00;99283.94;5074896;28;20055;-48
2023/01/18 07:46:15;;;;;;;18.55;9.70;;;;;;;-4.81;100.00;99281.28;5074882;28;20076;-48
2023/01/18 07:48:44;;;;;;;17.25;9.30;;;;;;;-4.80;100.00;99290.69;5074796;28;20055;-48
2023/01/18 07:51:12;;;;;;;16.88;10.30;;;;;;;-4.83;100.00;99290.75;5074766;28;20048;-47
2023/01/18 07:53:40;;;;;;;18.35;9.70;;;;;;;-4.84;100.00;99293.34;5074711;28;20113;-46
2023/01/18 07:56:12;;;;;;;16.90;9.20;;;;;;;-4.82;100.00;99291.59;5071477;28;20369;-48
2023/01/18 07:58:41;;;;;;;17.63;8.82;;;;;;;-4.81;100.00;99288.16;5070816;28;20044;-47
2023/01/18 08:01:11;;;;;;;16.80;9.88;;;;;;;-4.76;100.00;99294.00;5073189;28;20098;-50
2023/01/18 08:03:42;;;;;;;18.92;8.95;;;;;;;-4.81;100.00;99296.69;5074555;28;20086;-48
2023/01/18 08:06:11;;;;;;;15.20;8.40;;;;;;;-4.76;100.00;99302.53;5074516;28;20040;-46
2023/01/18 08:08:40;;;;;;;16.85;9.02;;;;;;;-4.76;100.00;99296.56;5074414;28;20098;-46
2023/01/18 08:11:08;;;;;;;19.88;9.18;;;;;;;-4.80;100.00;99308.63;5074508;28;20055;-49
2023/01/18 08:13:40;;;;;;;17.83;9.20;;;;;;;-4.77;100.00;99312.84;5070937;28;20052;-50
2023/01/18 08:16:11;;;;;;;16.88;9.15;;;;;;;-4.69;100.00;99315.19;5071230;28;20067;-47
2023/01/18 08:18:40;;;;;;;19.73;8.70;;;;;;;-4.65;100.00;99315.09;5073747;28;20098;-50
2023/01/18 08:21:10;;;;;;;15.90;8.65;;;;;;;-4.68;100.00;99320.28;5074268;28;20040;-50
2023/01/18 08:23:41;;;;;;;16.92;8.27;;;;;;;-4.60;100.00;99312.38;5071119;28;20491;-49
2023/01/18 08:26:11;;;;;;;18.02;9.82;;;;;;;-4.60;100.00;99314.94;5070393;28;20040;-52
2023/01/18 08:28:40;;;;;;;20.05;9.77;;;;;;;-4.59;100.00;99317.47;5073956;28;20507;-48
2023/01/18 08:31:11;;;;;;;17.27;8.98;;;;;;;-4.38;100.00;99319.50;5072687;28;20491;-52
2023/01/18 08:33:44;;;;;;;15.77;8.77;;;;;;;-4.25;100.00;99329.38;5073944;28;20085;-49
2023/01/18 08:36:12;;;;;;;;;;;;;;;-4.05;100.00;99329.69;5070731;28;20086;-48
2023/01/18 08:38:41;;;;;;;15.20;8.60;;;;;;;-3.84;100.00;99333.34;5070515;28;19927;-51
2023/01/18 08:41:09;;;;;;;19.65;8.43;;;;;;;-3.65;100.00;99334.47;5073831;28;20127;-48
2023/01/18 08:43:37;;;;;;;21.65;9.93;;;;;;;-3.58;100.00;99335.94;5073757;28;20044;-51
2023/01/18 08:46:06;;;;;;;15.38;9.38;;;;;;;-3.68;100.00;99337.13;5074000;28;20052;-49
2023/01/18 08:48:34;;;;;;;14.98;8.57;;;;;;;-3.67;100.00;99338.78;5073689;28;20495;-46
2023/01/18 08:51:03;;;;;;;18.60;10.07;;;;;;;-3.53;100.00;99350.38;5073736;28;20086;-49
2023/01/18 08:53:32;;;;;;;19.20;9.57;;;;;;;-3.50;100.00;99342.59;5073585;28;20044;-50
2023/01/18 08:56:04;;;;;;;16.83;9.70;;;;;;;-3.53;100.00;99345.25;5073736;28;20522;-47
2023/01/18 08:58:32;;;;;;;;;;;;;;;-3.50;100.00;99348.56;5073994;28;20049;-46
2023/01/18 09:01:04;;;;;;;15.02;8.55;;;;;;;-3.44;100.00;99347.53;5073475;28;19948;-49
2023/01/18 09:03:33;;;;;;;15.50;10.25;;;;;;;-3.25;100.00;99358.91;5073590;28;20563;-50
2023/01/18 09:06:01;;;;;;;16.88;10.10;;;;;;;-3.21;100.00;99357.09;5073234;28;20060;-48
2023/01/18 09:08:31;;;;;;;19.10;10.45;;;;;;;-3.14;100.00;99361.13;5072586;28;20040;-48
2023/01/18 09:11:02;;;;;;;15.23;9.57;;;;;;;-3.04;100.00;99360.84;5069691;28;20044;-47
2023/01/18 09:13:30;;;;;;;18.52;10.10;;;;;;;-2.95;100.00;99361.38;5071485;28;20055;-48
2023/01/18 09:15:59;;;;;;;19.05;10.57;;;;;;;-2.85;100.00;99371.38;5073247;28;20087;-48
2023/01/18 09:18:28;;;;;;;19.17;11.40;;;;;;;-2.66;100.00;99369.84;5072778;28;20045;-48
2023/01/18 09:20:57;;;;;;;21.60;10.48;;;;;;;-2.52;100.00;99376.25;5073042;28;20056;-48
2023/01/18 09:23:25;;;;;;;17.58;10.55;;;;;;;-2.50;100.00;99377.06;5070492;28;20080;-47
2023/01/18 09:26:03;;;;;;;21.42;11.48;;;;;;;-2.42;100.00;99380.19;5069029;28;20044;-49
2023/01/18 09:28:32;;;;;;;21.02;11.10;;;;;;;-2.36;100.00;99379.16;5071522;28;20048;-47
2023/01/18 09:31:01;;;;;;;17.08;11.10;;;;;;;-2.23;100.00;99386.38;5071727;28;20083;-48
2023/01/18 09:33:30;;;;;;;17.80;11.70;;;;;;;-2.16;100.00;99381.00;5072604;28;20048;-49
2023/01/18 09:36:08;;;;;;;17.92;10.77;;;;;;;-2.09;100.00;99390.19;5070878;28;20053;-50
2023/01/18 09:38:37;;;;;;;16.48;10.27;;;;;;;-1.99;100.00;99391.56;5072546;28;20094;-52
2023/01/18 09:41:34;;;;;;;16.60;10.55;;;;;;;-1.83;100.00;99399.53;5069426;28;20462;-49
2023/01/18 09:44:07;;;;;;;17.27;10.32;;;;;;;-1.69;100.00;99401.63;5069606;28;20041;-48
2023/01/18 09:46:39;;;;;;;19.60;10.73;;;;;;;-1.61;100.00;99399.59;5069810;28;20079;-51
2023/01/18 09:49:16;;;;;;;16.70;10.18;;;;;;;-1.46;100.00;99407.63;5068472;28;20094;-51
2023/01/18 09:51:56;;;;;;;19.65;11.23;;;;;;;-1.24;100.00;99410.22;5071326;28;20507;-52
2023/01/18 09:54:38;;;;;;;18.42;10.95;;;;;;;-0.56;100.00;99405.75;5072499;28;20044;-48
2023/01/18 09:57:20;;;;;;;17.23;11.05;;;;;;;0.01;100.00;99417.94;5072907;28;20076;-52
2023/01/18 09:59:54;;;;;;;17.80;9.68;;;;;;;0.57;100.00;99420.63;5072269;28;20086;-50
2023/01/18 10:02:25;;;;;;;16.40;9.00;;;;;;;0.69;100.00;99425.22;5068003;28;20051;-51
2023/01/18 10:04:58;;;;;;;14.23;8.50;;;;;;;0.60;100.00;99429.09;5069606;28;20040;-51
2023/01/18 10:07:29;;;;;;;14.90;8.48;;;;;;;1.39;100.00;99427.06;5072167;28;20457;-48
2023/01/18 10:10:00;;;;;;;14.05;8.65;;;;;;;1.25;100.00;99431.19;5072338;28;20400;-50
2023/01/18 10:12:38;;;;;;;11.27;7.20;;;;;;;0.91;100.00;99427.63;5069204;28;20055;-48
2023/01/18 10:15:12;;;;;;;15.27;8.00;;;;;;;0.90;100.00;99423.38;5068969;28;20048;-49
2023/01/18 10:17:42;;;;;;;15.30;8.45;;;;;;;1.50;100.00;99415.28;5072102;28;20045;-49
2023/01/18 10:20:15;;;;;;;15.00;8.10;;;;;;;1.43;100.00;99419.09;5071644;28;20083;-49
2023/01/18 10:22:51;;;;;;;13.50;7.75;;;;;;;1.22;100.00;99420.97;5070732;28;20052;-51
2023/01/18 10:25:31;;;;;;;14.18;7.63;;;;;;;1.28;100.00;99435.38;5071251;28;20052;-49
2023/01/18 10:28:24;;;;;;;15.57;8.15;;;;;;;1.31;100.00;99430.91;5068583;28;20123;-50
2023/01/18 10:31:04;;;;;;;11.60;7.28;;;;;;;1.25;100.00;99430.34;5071214;28;20044;-49
2023/01/18 10:33:39;;;;;;;12.93;7.88;;;;;;;1.12;100.00;99435.31;5072269;28;20521;-47
2023/01/18 10:36:13;;;;;;;16.13;9.38;;;;;;;1.00;100.00;99434.13;5070957;28;20052;-48
2023/01/18 10:38:42;;;;;;;14.85;7.65;;;;;;;1.03;100.00;99436.56;5068349;28;20043;-49
2023/01/18 10:41:19;;;;;;;12.60;8.02;;;;;;;0.89;100.00;99436.41;5070474;28;20135;-49
2023/01/18 10:43:48;;;;;;;13.52;7.70;;;;;;;0.80;100.00;99430.72;5071805;28;20410;-50
2023/01/18 10:46:18;;;;;;;16.25;7.70;;;;;;;0.78;100.00;99429.16;5072006;28;20070;-50
2023/01/18 10:48:48;;;;;;;19.17;8.48;;;;;;;0.76;100.00;99428.38;5070151;28;20057;-51
2023/01/18 10:51:36;;;;;;;14.82;8.25;;;;;;;0.79;100.00;99433.41;5068731;28;20110;-48
2023/01/18 10:54:23;;;;;;;14.27;8.05;;;;;;;0.79;100.00;99441.16;5071281;28;20135;-59
2023/01/18 10:57:02;;;;;;;15.20;8.07;;;;;;;0.87;100.00;99435.63;5067734;28;20101;-53
2023/01/18 10:59:36;;;;;;;12.88;7.78;;;;;;;0.86;100.00;99429.63;5069555;28;20048;-59
2023/01/18 11:02:05;;;;;;;13.55;7.07;;;;;;;0.89;100.00;99426.06;5071527;28;20468;-59
2023/01/18 11:04:34;;;;;;;14.88;7.47;;;;;;;0.94;100.00;99431.81;5071480;28;20051;-60
2023/01/18 11:07:03;;;;;;;14.38;7.25;;;;;;;0.96;100.00;99433.44;5070281;28;20049;-60
2023/01/18 11:09:40;;;;;;;12.98;7.50;;;;;;;1.06;100.00;99433.81;5070771;28;20135;-60
2023/01/18 11:12:35;;;;;;;12.85;6.95;;;;;;;1.08;100.00;99432.00;5068501;28;20097;-60
2023/01/18 11:15:24;;;;;;;12.77;6.30;;;;;;;1.09;100.00;99435.44;5071195;28;20078;-60
2023/01/18 11:18:10;;;;;;;12.48;6.95;;;;;;;1.12;100.00;99428.38;5071891;28;20388;-60
2023/01/18 11:20:50;;;;;;;13.95;7.13;;;;;;;1.18;100.00;99428.06;5071307;28;20057;-60
2023/01/18 11:23:25;;;;;;;13.27;7.05;;;;;;;1.25;100.00;99418.22;5070820;28;20044;-60
2023/01/18 11:25:57;;;;;;;10.60;6.25;;;;;;;1.26;100.00;99421.69;5068013;28;20047;-60
2023/01/18 11:28:29;;;;;;;14.00;7.40;;;;;;;1.22;100.00;99426.16;5069152;28;20056;-60
2023/01/18 11:31:07;;;;;;;13.13;6.85;;;;;;;1.23;100.00;99427.00;5071858;28;20072;-61
2023/01/18 11:33:40;;;;;;;11.93;6.53;;;;;;;1.32;100.00;99426.53;5071405;28;20056;-60
2023/01/18 11:36:09;;;;;;;11.00;6.22;;;;;;;1.34;100.00;99430.72;5071546;28;20052;-60
2023/01/18 11:38:37;;;;;;;13.35;7.05;;;;;;;1.32;100.00;99435.16;5075092;28;20054;-60
2023/01/18 11:41:13;;;;;;;13.20;6.85;;;;;;;1.33;100.00;99439.41;5075189;28;20056;-60
2023/01/18 11:43:53;;;;;;;14.60;6.88;;;;;;;1.29;100.00;99442.25;5074997;28;20044;-60
2023/01/18 11:46:33;;;;;;;12.68;7.00;;;;;;;1.32;100.00;99444.69;5074660;28;20047;-60
2023/01/18 11:49:13;;;;;;;13.00;7.00;;;;;;;1.32;100.00;99444.69;5070977;28;21029;-60
2023/01/18 11:51:48;;;;;;;15.60;7.13;;;;;;;1.38;100.00;99449.56;5072510;28;20109;-60
2023/01/18 11:54:25;;;;;;;12.30;6.90;;;;;;;1.38;100.00;99446.97;5074918;28;20056;-60
2023/01/18 11:56:58;;;;;;;13.20;7.05;;;;;;;1.48;100.00;99450.78;5074847;28;20072;-60
2023/01/18 11:59:29;;;;;;;13.77;6.85;;;;;;;1.40;100.00;99452.09;5074612;28;20044;-61
2023/01/18 12:02:33;;;;;;;14.48;7.45;;;;;;;1.44;100.00;99459.63;5074734;28;20167;-60
2023/01/18 12:05:21;;;;;;;13.82;7.00;;;;;;;1.44;100.00;99451.84;5058249;28;20060;-60
2023/01/18 12:08:00;;;;;;;12.20;7.22;;;;;;;1.42;100.00;99455.41;5069300;28;20147;-60